Time;durP1;ratioP1;P1;durP2;ratioP2;P2;SDS_P1;SDS_P2;PMS_P1;PMS_P2;Temp;Humidity;BMP_temperature;BMP_pressure;BME280_temperature;BME280_humidity;BME280_pressure;Samples;Min_cycle;Max_cycle;Signal;HPM_P1;HPM_P2
2021/12/12 00:02:10;;;;;;;2.40;1.08;;;20.20;47.60;;;;;;5046401;28;20055;-55
2021/12/12 00:04:44;;;;;;;3.95;1.58;;;20.10;47.70;;;;;;5046852;28;20047;-51
2021/12/12 00:07:14;;;;;;;1.73;1.23;;;20.00;47.70;;;;;;5045001;28;20041;-54
2021/12/12 00:09:46;;;;;;;1.00;0.45;;;19.90;47.80;;;;;;5046836;28;20057;-52
2021/12/12 00:12:17;;;;;;;1.70;1.10;;;19.90;47.90;;;;;;5040957;28;20049;-53
2021/12/12 00:14:45;;;;;;;5.40;1.02;;;19.80;48.00;;;;;;5046249;28;20033;-53
2021/12/12 00:17:12;;;;;;;5.43;0.93;;;19.70;48.00;;;;;;5045606;28;20037;-52
2021/12/12 00:19:41;;;;;;;2.42;1.45;;;19.70;48.20;;;;;;5043804;28;20043;-55
2021/12/12 00:22:11;;;;;;;3.28;1.83;;;19.60;48.20;;;;;;5046105;28;20075;-50
2021/12/12 00:24:40;;;;;;;1.88;0.70;;;19.60;48.30;;;;;;5046131;28;20040;-50
2021/12/12 00:27:09;;;;;;;3.50;1.17;;;19.50;48.30;;;;;;5046419;28;20056;-49
2021/12/12 00:29:38;;;;;;;2.95;1.35;;;19.50;48.50;;;;;;5046491;28;20045;-50
2021/12/12 00:32:08;;;;;;;4.72;0.65;;;19.40;48.60;;;;;;5045864;28;20049;-51
2021/12/12 00:34:38;;;;;;;10.57;1.30;;;19.40;48.70;;;;;;5046240;28;20059;-52
2021/12/12 00:37:07;;;;;;;2.05;0.88;;;19.30;48.80;;;;;;5045920;28;20159;-51
2021/12/12 00:39:37;;;;;;;3.63;1.42;;;19.30;48.90;;;;;;5042643;28;20091;-53
2021/12/12 00:42:09;;;;;;;3.20;0.88;;;19.20;49.00;;;;;;5046111;28;20037;-54
2021/12/12 00:44:39;;;;;;;3.00;1.00;;;19.20;49.10;;;;;;5046209;28;20131;-51
2021/12/12 00:47:09;;;;;;;2.78;0.70;;;19.10;49.20;;;;;;5045723;28;20048;-54
2021/12/12 00:49:39;;;;;;;3.05;0.75;;;19.10;49.30;;;;;;5045534;28;20047;-53
2021/12/12 00:52:09;;;;;;;3.47;0.93;;;19.00;49.40;;;;;;5045378;28;20053;-52
2021/12/12 00:54:37;;;;;;;2.72;0.82;;;19.00;49.50;;;;;;5046138;28;20041;-55
2021/12/12 00:57:09;;;;;;;2.47;0.85;;;19.00;49.50;;;;;;5046200;28;20041;-56
2021/12/12 00:59:37;;;;;;;3.10;1.05;;;18.90;49.60;;;;;;5046405;28;20094;-50
2021/12/12 01:02:07;;;;;;;2.38;1.00;;;18.90;49.80;;;;;;5046824;28;20044;-53
2021/12/12 01:04:37;;;;;;;2.70;1.05;;;18.90;50.40;;;;;;5045538;28;20083;-52
2021/12/12 01:07:11;;;;;;;2.10;0.90;;;18.80;49.80;;;;;;5039585;28;20681;-55
2021/12/12 01:09:44;;;;;;;2.80;0.52;;;18.80;50.10;;;;;;5040105;28;20520;-54
2021/12/12 01:12:16;;;;;;;2.00;0.70;;;18.80;50.20;;;;;;5045933;28;20044;-52
2021/12/12 01:14:48;;;;;;;4.30;0.73;;;18.80;50.40;;;;;;5045573;28;20414;-53
2021/12/12 01:17:19;;;;;;;0.95;0.70;;;18.70;51.00;;;;;;5045597;28;20094;-54
2021/12/12 01:19:51;;;;;;;2.25;0.57;;;18.70;50.60;;;;;;5045506;28;20429;-56
2021/12/12 01:22:24;;;;;;;4.13;0.65;;;18.70;50.60;;;;;;5045368;28;20133;-53
2021/12/12 01:24:53;;;;;;;1.35;0.90;;;18.60;50.70;;;;;;5045843;28;20037;-51
2021/12/12 01:27:23;;;;;;;3.05;0.80;;;18.60;50.80;;;;;;5045482;28;20044;-54
2021/12/12 01:29:52;;;;;;;2.72;0.75;;;18.60;50.90;;;;;;5045531;28;20041;-55
2021/12/12 01:32:23;;;;;;;2.00;0.60;;;18.60;51.00;;;;;;5046349;28;20033;-54
2021/12/12 01:34:51;;;;;;;1.83;0.52;;;18.60;51.00;;;;;;5044086;28;20051;-55
2021/12/12 01:37:35;;;;;;;1.77;0.60;;;18.60;51.10;;;;;;5045253;28;20063;-55
2021/12/12 01:40:09;;;;;;;3.38;1.15;;;18.50;51.10;;;;;;5045389;28;20120;-52
2021/12/12 01:42:41;;;;;;;2.45;1.42;;;18.50;51.10;;;;;;5045012;28;20047;-54
2021/12/12 01:45:14;;;;;;;0.52;0.30;;;18.50;51.20;;;;;;5045110;28;20149;-54
2021/12/12 01:47:49;;;;;;;0.63;0.40;;;18.50;51.20;;;;;;5043220;28;20049;-52
2021/12/12 01:50:19;;;;;;;1.00;0.40;;;18.50;51.20;;;;;;5046630;28;20045;-53
2021/12/12 01:52:47;;;;;;;2.10;0.50;;;18.40;51.20;;;;;;5046593;28;20033;-54
2021/12/12 01:55:23;;;;;;;1.00;0.20;;;18.40;51.20;;;;;;5043301;28;20075;-52
2021/12/12 01:57:53;;;;;;;0.50;0.20;;;18.40;51.20;;;;;;5035642;28;20127;-53
2021/12/12 02:00:28;;;;;;;1.30;0.30;;;18.40;51.30;;;;;;5039074;28;20037;-52
2021/12/12 02:02:57;;;;;;;0.40;0.40;;;18.40;51.30;;;;;;5039374;28;20446;-53
2021/12/12 02:05:28;;;;;;;0.50;0.40;;;18.30;51.20;;;;;;5045551;28;20041;-52
2021/12/12 02:07:59;;;;;;;1.48;0.40;;;18.30;51.20;;;;;;5045066;28;20075;-55
2021/12/12 02:10:37;;;;;;;0.80;0.20;;;18.30;51.30;;;;;;5044462;28;20120;-50
2021/12/12 02:13:12;;;;;;;0.60;0.20;;;18.30;51.30;;;;;;5044695;28;20159;-55
2021/12/12 02:15:40;;;;;;;2.78;0.28;;;18.30;51.30;;;;;;5044447;28;20139;-55
2021/12/12 02:18:10;;;;;;;0.47;0.20;;;18.30;51.40;;;;;;5044342;28;20043;-55
2021/12/12 02:20:43;;;;;;;0.40;0.10;;;18.30;51.40;;;;;;5044796;28;20124;-55
2021/12/12 02:23:24;;;;;;;0.50;0.13;;;18.30;51.40;;;;;;5056635;28;20476;-55
2021/12/12 02:37:01;;;;;;;0.22;0.10;;;18.20;51.50;;;;;;5044067;28;20037;-55
2021/12/12 02:39:29;;;;;;;0.50;0.20;;;18.20;52.10;;;;;;5046204;28;20058;-53
2021/12/12 02:41:59;;;;;;;0.88;0.25;;;18.20;51.50;;;;;;5048813;28;20034;-53
2021/12/12 02:44:30;;;;;;;0.25;0.10;;;18.20;51.50;;;;;;5049147;28;20068;-52
2021/12/12 02:47:00;;;;;;;0.70;0.10;;;18.10;51.40;;;;;;5051137;28;20048;-55
2021/12/12 02:49:39;;;;;;;0.30;0.30;;;18.10;51.40;;;;;;5045615;28;20148;-54
2021/12/12 02:52:09;;;;;;;2.05;0.10;;;18.10;51.50;;;;;;5043512;28;20041;-53
2021/12/12 02:54:38;;;;;;;0.13;0.10;;;18.10;51.50;;;;;;5048413;28;20044;-53
2021/12/12 02:57:07;;;;;;;0.40;0.10;;;18.10;51.50;;;;;;5048067;28;20124;-52
2021/12/12 02:59:35;;;;;;;0.90;0.10;;;18.10;51.50;;;;;;5048641;28;20045;-55
2021/12/12 03:02:06;;;;;;;0.30;0.13;;;18.10;51.50;;;;;;5049192;28;20488;-55
2021/12/12 03:04:33;;;;;;;0.40;0.40;;;18.10;51.50;;;;;;5047730;28;20059;-56
2021/12/12 03:07:02;;;;;;;0.20;0.10;;;18.10;51.50;;;;;;5047991;28;20032;-54
2021/12/12 03:09:33;;;;;;;0.30;0.10;;;18.10;51.60;;;;;;5048113;28;20033;-51
2021/12/12 03:12:04;;;;;;;0.57;0.20;;;18.10;51.60;;;;;;5048240;28;20599;-55
2021/12/12 03:14:32;;;;;;;1.55;0.43;;;18.10;51.60;;;;;;5048133;28;20148;-54
2021/12/12 03:17:01;;;;;;;0.20;0.10;;;18.10;51.60;;;;;;5049291;28;20090;-52
2021/12/12 03:19:29;;;;;;;0.10;0.10;;;18.10;51.70;;;;;;5052208;28;20040;-54
2021/12/12 03:21:56;;;;;;;0.10;0.10;;;18.10;51.70;;;;;;5049772;28;20025;-55
2021/12/12 03:24:25;;;;;;;0.40;0.40;;;18.10;51.70;;;;;;5047602;28;20146;-53
2021/12/12 03:26:55;;;;;;;1.40;0.10;;;18.10;51.70;;;;;;5046374;28;20037;-54
2021/12/12 03:29:25;;;;;;;0.73;0.65;;;18.10;51.70;;;;;;5047535;28;20045;-53
2021/12/12 03:31:57;;;;;;;0.57;0.10;;;18.10;51.70;;;;;;5048333;28;20501;-56
2021/12/12 03:34:28;;;;;;;0.10;0.10;;;18.10;51.80;;;;;;5047709;28;20116;-55
2021/12/12 03:36:55;;;;;;;1.52;0.90;;;18.10;51.80;;;;;;5047349;28;20037;-56
2021/12/12 03:39:25;;;;;;;0.90;0.47;;;18.00;51.80;;;;;;5047450;28;20425;-56
2021/12/12 03:41:54;;;;;;;0.28;0.20;;;18.10;51.80;;;;;;5041793;28;20049;-56
2021/12/12 03:44:26;;;;;;;0.30;0.20;;;18.00;51.70;;;;;;5044610;28;20063;-56
2021/12/12 03:46:58;;;;;;;0.73;0.55;;;18.10;51.80;;;;;;5048275;28;20053;-52
2021/12/12 03:49:26;;;;;;;0.85;0.38;;;18.00;51.80;;;;;;5047011;28;20043;-52
2021/12/12 03:51:53;;;;;;;0.20;0.10;;;18.00;51.90;;;;;;5047037;28;20468;-55
2021/12/12 03:54:20;;;;;;;0.75;0.20;;;18.00;51.90;;;;;;5047096;28;20128;-50
2021/12/12 03:56:48;;;;;;;2.25;0.50;;;18.00;51.80;;;;;;5047338;28;20048;-51
2021/12/12 03:59:16;;;;;;;0.45;0.28;;;18.00;51.90;;;;;;5048024;28;20500;-50
2021/12/12 04:01:48;;;;;;;3.58;0.75;;;18.00;51.80;;;;;;5047494;28;20144;-54
2021/12/12 04:04:18;;;;;;;0.35;0.10;;;18.00;51.90;;;;;;5047731;28;20432;-52
2021/12/12 04:06:46;;;;;;;0.20;0.10;;;18.00;52.50;;;;;;5045889;28;20071;-51
2021/12/12 04:09:16;;;;;;;0.70;0.32;;;18.00;52.00;;;;;;5046801;28;20075;-50
2021/12/12 04:11:46;;;;;;;0.32;0.20;;;18.00;51.90;;;;;;5046995;28;20127;-51
2021/12/12 04:14:15;;;;;;;0.55;0.55;;;18.00;52.00;;;;;;5047531;28;20270;-52
2021/12/12 04:16:47;;;;;;;0.30;0.15;;;18.00;52.00;;;;;;5046580;28;20056;-52
2021/12/12 04:19:14;;;;;;;0.45;0.20;;;18.00;52.10;;;;;;5046326;28;20167;-53
2021/12/12 04:21:42;;;;;;;2.25;0.20;;;18.00;52.10;;;;;;5046570;28;20045;-51
2021/12/12 04:24:10;;;;;;;0.52;0.20;;;18.00;52.10;;;;;;5046361;28;20060;-54
2021/12/12 04:26:40;;;;;;;2.83;0.35;;;18.00;52.10;;;;;;5046720;28;20045;-52
2021/12/12 04:29:09;;;;;;;0.85;0.30;;;18.00;52.10;;;;;;5045716;28;20163;-53
2021/12/12 04:31:38;;;;;;;1.17;0.20;;;18.00;52.10;;;;;;5046679;28;20497;-51
2021/12/12 04:34:08;;;;;;;0.68;0.68;;;18.00;52.10;;;;;;5046731;28;20074;-52
2021/12/12 04:36:38;;;;;;;0.20;0.10;;;17.90;52.10;;;;;;5046377;28;20049;-50
2021/12/12 04:39:09;;;;;;;0.63;0.20;;;18.00;52.10;;;;;;5046228;28;20098;-51
2021/12/12 04:41:37;;;;;;;1.15;0.40;;;18.00;52.10;;;;;;5046420;28;20072;-55
2021/12/12 04:44:05;;;;;;;0.20;0.20;;;18.00;52.10;;;;;;5046495;28;20037;-53
2021/12/12 04:49:54;;;;;;;0.15;0.15;;;17.90;52.00;;;;;;5046011;28;20041;-49
2021/12/12 04:52:15;;;;;;;0.50;0.20;;;17.90;52.10;;;;;;5046419;28;20048;-52
2021/12/12 04:54:48;;;;;;;0.30;0.10;;;18.00;52.10;;;;;;5046147;28;20651;-50
2021/12/12 04:57:21;;;;;;;0.55;0.40;;;17.90;52.00;;;;;;5039315;28;20044;-52
2021/12/12 04:59:51;;;;;;;1.05;0.30;;;17.90;52.60;;;;;;5046651;28;20048;-52
2021/12/12 05:02:25;;;;;;;1.05;0.30;;;17.90;52.20;;;;;;5047172;28;20044;-54
2021/12/12 05:04:59;;;;;;;0.30;0.17;;;17.90;52.20;;;;;;5046289;28;20049;-52
2021/12/12 05:07:33;;;;;;;0.32;0.28;;;17.90;52.20;;;;;;5046300;28;20120;-52
2021/12/12 05:10:05;;;;;;;0.50;0.30;;;17.90;52.20;;;;;;5045835;28;20037;-51
2021/12/12 05:12:35;;;;;;;0.60;0.10;;;17.90;52.20;;;;;;5044964;28;20037;-50
2021/12/12 05:15:13;;;;;;;1.73;0.10;;;17.90;52.20;;;;;;5045550;28;20041;-51
2021/12/12 05:17:44;;;;;;;2.03;0.10;;;17.90;52.10;;;;;;5045773;28;20059;-55
2021/12/12 05:20:17;;;;;;;0.30;0.20;;;17.90;52.10;;;;;;5047268;28;20037;-49
2021/12/12 05:22:48;;;;;;;0.20;0.10;;;17.90;52.20;;;;;;5044236;28;20040;-52
2021/12/12 05:25:20;;;;;;;1.48;0.40;;;17.90;52.20;;;;;;5044674;28;20132;-49
2021/12/12 05:27:50;;;;;;;0.20;0.17;;;17.90;52.20;;;;;;5041279;28;20120;-49
2021/12/12 05:30:20;;;;;;;0.17;0.10;;;17.90;52.20;;;;;;5045323;28;20029;-49
2021/12/12 05:32:49;;;;;;;0.50;0.20;;;17.90;52.20;;;;;;5045620;28;20047;-53
2021/12/12 05:35:22;;;;;;;0.20;0.20;;;17.90;52.20;;;;;;5046519;28;20047;-50
2021/12/12 05:37:51;;;;;;;0.20;0.10;;;17.90;52.20;;;;;;5036101;28;20123;-50
2021/12/12 05:40:21;;;;;;;0.17;0.10;;;18.00;52.30;;;;;;5044641;28;20040;-55
2021/12/12 05:42:51;;;;;;;2.70;0.15;;;17.90;52.20;;;;;;5045668;28;20095;-52
2021/12/12 05:45:18;;;;;;;0.20;0.20;;;18.00;52.30;;;;;;5045052;28;20040;-50
2021/12/12 05:47:46;;;;;;;1.83;0.63;;;17.90;52.20;;;;;;5045164;28;20037;-49
2021/12/12 05:50:15;;;;;;;1.75;0.13;;;17.90;52.20;;;;;;5046827;28;20075;-53
2021/12/12 05:52:45;;;;;;;2.28;0.20;;;17.90;52.30;;;;;;5045354;28;20056;-50
2021/12/12 05:55:15;;;;;;;0.20;0.20;;;17.90;52.30;;;;;;5044882;28;20139;-53
2021/12/12 05:57:44;;;;;;;0.80;0.25;;;17.90;52.20;;;;;;5043616;28;20837;-49
2021/12/12 06:00:15;;;;;;;0.28;0.10;;;17.90;52.30;;;;;;5045131;28;20040;-52
2021/12/12 06:02:44;;;;;;;0.20;0.20;;;17.90;52.20;;;;;;5045195;28;20053;-52
2021/12/12 06:05:11;;;;;;;1.77;0.10;;;17.90;52.20;;;;;;5046238;28;20041;-53
2021/12/12 06:07:38;;;;;;;0.28;0.10;;;17.90;52.30;;;;;;5044415;28;20040;-53
2021/12/12 06:10:11;;;;;;;0.40;0.20;;;17.90;52.30;;;;;;5045151;28;20041;-51
2021/12/12 06:12:39;;;;;;;0.20;0.10;;;17.90;52.30;;;;;;5038989;28;20041;-51
2021/12/12 06:15:09;;;;;;;0.10;0.10;;;17.90;52.30;;;;;;5044179;28;20033;-52
2021/12/12 06:17:38;;;;;;;1.10;0.40;;;17.90;52.30;;;;;;5044920;28;20578;-54
2021/12/12 06:20:08;;;;;;;4.35;0.30;;;17.90;52.30;;;;;;5043793;28;20739;-52
2021/12/12 06:22:36;;;;;;;0.80;0.10;;;17.90;52.90;;;;;;5044809;28;20047;-52
2021/12/12 06:25:04;;;;;;;0.52;0.10;;;17.90;52.30;;;;;;5044081;28;20834;-52
2021/12/12 06:27:33;;;;;;;0.28;0.28;;;17.90;52.30;;;;;;5044362;28;20033;-54
2021/12/12 06:30:00;;;;;;;0.20;0.10;;;17.90;52.30;;;;;;5044340;28;20034;-52
2021/12/12 06:32:28;;;;;;;0.90;0.13;;;17.90;52.40;;;;;;5045067;28;20041;-54
2021/12/12 06:34:58;;;;;;;1.02;0.20;;;17.90;52.40;;;;;;5045188;28;20377;-52
2021/12/12 06:37:27;;;;;;;0.40;0.40;;;17.90;52.40;;;;;;5042404;28;20033;-54
2021/12/12 06:39:55;;;;;;;0.20;0.10;;;17.90;52.40;;;;;;5043762;28;20044;-52
2021/12/12 06:42:22;;;;;;;0.40;0.10;;;17.90;52.40;;;;;;5044266;28;20108;-53
2021/12/12 06:44:51;;;;;;;0.47;0.10;;;17.90;52.40;;;;;;5044282;28;20067;-49
2021/12/12 06:47:19;;;;;;;0.32;0.20;;;17.90;52.40;;;;;;5027859;28;20053;-51
2021/12/12 06:49:47;;;;;;;0.63;0.17;;;17.90;52.50;;;;;;5044446;28;20498;-52
2021/12/12 06:52:16;;;;;;;0.52;0.30;;;17.90;52.50;;;;;;5044143;28;20564;-52
2021/12/12 06:54:44;;;;;;;0.22;0.10;;;17.90;52.60;;;;;;5044680;28;20056;-49
2021/12/12 06:57:15;;;;;;;1.05;0.10;;;17.90;52.70;;;;;;5044570;28;20565;-50
2021/12/12 06:59:45;;;;;;;0.30;0.10;;;17.90;53.00;;;;;;5044350;28;20064;-53
2021/12/12 07:02:14;;;;;;;0.63;0.10;;;17.90;53.10;;;;;;5046096;28;20060;-54
2021/12/12 07:04:44;;;;;;;11.13;0.25;;;17.90;53.40;;;;;;5044762;28;20561;-55
2021/12/12 07:07:17;;;;;;;7.43;0.10;;;18.00;53.50;;;;;;5042955;28;20041;-56
2021/12/12 07:09:47;;;;;;;2.25;0.30;;;17.90;53.60;;;;;;5044391;28;20084;-54
2021/12/12 07:12:22;;;;;;;4.40;0.20;;;17.90;53.50;;;;;;5043675;28;20156;-55
2021/12/12 07:14:50;;;;;;;7.10;0.30;;;17.90;54.00;;;;;;5043867;28;20045;-55
2021/12/12 07:17:19;;;;;;;15.55;0.47;;;17.90;54.30;;;;;;5045041;28;20052;-52
2021/12/12 07:19:47;;;;;;;5.80;1.70;;;17.90;55.00;;;;;;5043219;28;20159;-46
2021/12/12 07:22:15;;;;;;;11.07;0.93;;;17.90;55.20;;;;;;5042455;28;20045;-46
2021/12/12 07:24:43;;;;;;;9.00;0.38;;;17.90;55.30;;;;;;5038603;28;20053;-53
2021/12/12 07:27:13;;;;;;;7.47;0.52;;;18.00;55.50;;;;;;5047866;28;20041;-46
2021/12/12 07:29:41;;;;;;;9.32;0.25;;;18.00;55.60;;;;;;5047531;28;20052;-47
2021/12/12 07:32:09;;;;;;;6.05;0.70;;;18.00;55.60;;;;;;5049672;28;20577;-48
2021/12/12 07:34:38;;;;;;;4.32;0.68;;;18.00;55.60;;;;;;5047492;28;20100;-47
2021/12/12 07:37:09;;;;;;;3.03;0.43;;;18.00;55.60;;;;;;5047733;28;20037;-49
2021/12/12 07:39:40;;;;;;;4.97;0.20;;;18.00;55.60;;;;;;5042619;28;20128;-48
2021/12/12 07:42:08;;;;;;;7.63;0.73;;;18.00;55.60;;;;;;5047886;28;20220;-48
2021/12/12 07:44:40;;;;;;;4.35;0.50;;;18.00;55.50;;;;;;5047306;28;20132;-48
2021/12/12 07:47:09;;;;;;;4.63;0.20;;;18.00;55.50;;;;;;5047154;28;20118;-50
2021/12/12 07:49:41;;;;;;;1.70;0.20;;;17.90;55.40;;;;;;5047396;28;20112;-48
2021/12/12 07:52:11;;;;;;;4.47;0.70;;;17.90;55.40;;;;;;5047134;28;20045;-50
2021/12/12 07:54:39;;;;;;;8.57;1.80;;;17.90;55.30;;;;;;5047105;28;20497;-53
2021/12/12 07:57:07;;;;;;;3.22;1.02;;;17.90;55.30;;;;;;5047678;28;20397;-50
2021/12/12 07:59:36;;;;;;;11.30;0.80;;;17.90;55.30;;;;;;5045591;28;20403;-48
2021/12/12 08:02:05;;;;;;;7.88;0.60;;;17.90;55.20;;;;;;5048634;28;20049;-50
2021/12/12 08:04:34;;;;;;;2.55;0.70;;;17.90;55.10;;;;;;5047073;28;20048;-48
2021/12/12 08:07:04;;;;;;;3.40;1.05;;;17.90;55.10;;;;;;5047422;28;20045;-46
2021/12/12 08:09:32;;;;;;;2.80;0.80;;;17.90;55.00;;;;;;5047005;28;20033;-48
2021/12/12 08:11:59;;;;;;;2.15;0.95;;;17.90;55.00;;;;;;5047364;28;20718;-46
2021/12/12 08:14:28;;;;;;;4.22;1.33;;;17.90;54.90;;;;;;5047502;28;20037;-46
2021/12/12 08:16:57;;;;;;;3.05;1.08;;;17.90;54.90;;;;;;5047763;28;20136;-47
2021/12/12 08:19:27;;;;;;;2.05;1.05;;;17.90;54.80;;;;;;5045919;28;20509;-46
2021/12/12 08:21:56;;;;;;;4.13;1.98;;;17.90;54.80;;;;;;5046908;28;20091;-47
2021/12/12 08:24:24;;;;;;;5.82;1.73;;;17.90;54.70;;;;;;5046576;28;20137;-50
2021/12/12 08:26:52;;;;;;;6.15;1.98;;;17.90;54.70;;;;;;5046906;28;20041;-52
2021/12/12 08:29:21;;;;;;;6.45;2.25;;;17.90;54.60;;;;;;5046405;28;20136;-50
2021/12/12 08:31:48;;;;;;;2.85;2.10;;;17.90;54.60;;;;;;5046702;28;20486;-48
2021/12/12 08:34:16;;;;;;;2.63;2.05;;;17.90;54.50;;;;;;5046069;28;20047;-48
2021/12/12 08:36:48;;;;;;;5.65;1.83;;;17.90;54.50;;;;;;5045491;28;20101;-47
2021/12/12 08:39:16;;;;;;;4.65;1.95;;;17.90;54.40;;;;;;5044094;28;20060;-49
2021/12/12 08:41:48;;;;;;;3.00;2.25;;;17.90;54.40;;;;;;5046409;28;20045;-52
2021/12/12 08:44:16;;;;;;;5.00;3.30;;;17.90;54.40;;;;;;5047883;28;20053;-52
2021/12/12 08:46:47;;;;;;;5.30;3.35;;;17.90;54.30;;;;;;5046418;28;20067;-53
2021/12/12 08:49:17;;;;;;;9.98;3.75;;;17.90;54.30;;;;;;5046527;28;20103;-47
2021/12/12 08:51:47;;;;;;;10.00;4.25;;;18.00;54.30;;;;;;5046449;28;20045;-48
2021/12/12 08:54:25;;;;;;;11.88;4.75;;;17.90;54.20;;;;;;5046466;28;20032;-48
2021/12/12 08:57:02;;;;;;;8.25;3.78;;;18.00;54.20;;;;;;5046552;28;20139;-52
2021/12/12 08:59:32;;;;;;;8.60;4.28;;;18.00;54.20;;;;;;5044160;28;20045;-48
2021/12/12 09:02:04;;;;;;;7.55;4.38;;;18.00;54.10;;;;;;5047205;28;20037;-46
2021/12/12 09:04:33;;;;;;;8.43;4.43;;;18.00;54.10;;;;;;5045771;28;20517;-50
2021/12/12 09:07:06;;;;;;;9.82;4.22;;;18.00;54.10;;;;;;5046477;28;20033;-50
2021/12/12 09:09:38;;;;;;;7.90;5.00;;;18.00;54.00;;;;;;5046221;28;20128;-54
2021/12/12 09:12:10;;;;;;;7.80;3.75;;;18.00;54.00;;;;;;5046301;28;20033;-51
2021/12/12 09:14:40;;;;;;;7.75;4.53;;;18.00;53.90;;;;;;5046178;28;20202;-51
2021/12/12 09:17:12;;;;;;;7.15;3.25;;;18.00;53.90;;;;;;5045713;28;20041;-48
2021/12/12 09:19:42;;;;;;;7.82;4.88;;;18.00;53.90;;;;;;5046094;28;20036;-53
2021/12/12 09:22:15;;;;;;;10.82;3.40;;;18.00;53.80;;;;;;5047309;28;20072;-51
2021/12/12 09:25:00;;;;;;;10.43;3.95;;;18.00;53.80;;;;;;5046152;28;20041;-50
2021/12/12 09:27:35;;;;;;;8.68;3.88;;;18.00;53.70;;;;;;5046374;28;20520;-47
2021/12/12 09:30:07;;;;;;;6.95;2.90;;;18.10;53.80;;;;;;5039805;28;20059;-50
2021/12/12 09:32:39;;;;;;;8.45;3.33;;;18.00;53.70;;;;;;5045888;28;20049;-50
2021/12/12 09:35:10;;;;;;;5.70;3.53;;;18.00;53.60;;;;;;5045342;28;20060;-48
2021/12/12 09:37:42;;;;;;;5.40;3.13;;;18.10;53.70;;;;;;5044411;28;20139;-49
2021/12/12 09:40:19;;;;;;;4.93;2.80;;;18.10;53.60;;;;;;5045990;28;20043;-48
2021/12/12 09:42:59;;;;;;;4.78;2.92;;;18.10;53.60;;;;;;5046022;28;20068;-47
2021/12/12 09:45:48;;;;;;;5.57;3.03;;;18.10;53.60;;;;;;5044118;28;20045;-51
2021/12/12 09:51:49;;;;;;;6.03;2.53;;;18.10;53.50;;;;;;5041534;28;20045;-50
2021/12/12 09:54:26;;;;;;;5.68;2.70;;;18.00;53.50;;;;;;5046206;28;20033;-48
2021/12/12 09:56:59;;;;;;;8.60;2.17;;;18.10;53.50;;;;;;5044776;28;20044;-50
2021/12/12 09:59:43;;;;;;;3.88;2.55;;;18.10;53.50;;;;;;5046295;28;20044;-53
2021/12/12 10:02:23;;;;;;;5.25;2.72;;;18.10;53.40;;;;;;5047513;28;20048;-48
2021/12/12 10:05:17;;;;;;;6.70;3.15;;;18.10;53.40;;;;;;5046004;28;20041;-49
2021/12/12 10:07:54;;;;;;;4.97;2.22;;;18.10;53.40;;;;;;5044715;28;20049;-47
2021/12/12 10:10:25;;;;;;;5.72;2.13;;;18.10;53.40;;;;;;5045593;28;20488;-51
2021/12/12 10:13:00;;;;;;;3.30;1.83;;;18.10;53.30;;;;;;5045125;28;20049;-46
2021/12/12 10:15:29;;;;;;;3.70;1.65;;;18.20;53.30;;;;;;5045068;28;20040;-53
2021/12/12 10:18:01;;;;;;;5.25;1.33;;;18.20;53.90;;;;;;5045773;28;20153;-50
2021/12/12 10:20:34;;;;;;;2.25;1.02;;;18.20;53.20;;;;;;5045702;28;20049;-52
2021/12/12 10:23:13;;;;;;;2.33;1.95;;;18.30;53.20;;;;;;5046280;28;20535;-50
2021/12/12 10:25:52;;;;;;;8.60;1.73;;;18.30;53.10;;;;;;5045157;28;20712;-51
2021/12/12 10:28:23;;;;;;;2.72;1.52;;;18.30;53.10;;;;;;5041285;28;20509;-52
2021/12/12 10:31:01;;;;;;;4.00;1.30;;;18.30;53.10;;;;;;5044586;28;20052;-49
2021/12/12 10:33:36;;;;;;;1.85;0.75;;;18.30;53.00;;;;;;5045157;28;20129;-51
2021/12/12 10:36:07;;;;;;;1.63;0.90;;;18.30;53.00;;;;;;5045142;28;20068;-51
2021/12/12 10:38:41;;;;;;;1.52;1.00;;;18.30;53.00;;;;;;5045561;28;20418;-51
2021/12/12 10:41:16;;;;;;;2.97;1.30;;;18.40;52.90;;;;;;5046115;28;20142;-48
2021/12/12 10:43:50;;;;;;;4.63;0.50;;;18.40;52.90;;;;;;5044297;28;20051;-48
2021/12/12 10:46:22;;;;;;;0.90;0.30;;;18.40;52.80;;;;;;5041200;28;20136;-50
2021/12/12 10:49:05;;;;;;;1.55;0.85;;;18.50;53.20;;;;;;5043709;28;20532;-52
2021/12/12 10:51:40;;;;;;;0.75;0.55;;;18.50;52.80;;;;;;5045163;28;20041;-51
2021/12/12 10:54:14;;;;;;;1.35;0.40;;;18.50;52.80;;;;;;5045259;28;20072;-53
2021/12/12 10:56:45;;;;;;;2.10;0.30;;;18.50;52.80;;;;;;5044729;28;20413;-50
2021/12/12 10:59:21;;;;;;;0.82;0.40;;;18.50;52.80;;;;;;5046048;28;20047;-51
2021/12/12 11:01:53;;;;;;;;;;;18.50;52.70;;;;;;5049960;28;20051;-50
2021/12/12 11:04:23;;;;;;;1.30;0.40;;;18.50;52.70;;;;;;5048921;28;19924;-47
2021/12/12 11:06:53;;;;;;;1.48;0.40;;;18.40;52.80;;;;;;5048583;28;20509;-49
2021/12/12 11:09:27;;;;;;;1.33;0.20;;;18.50;52.80;;;;;;5048972;28;20053;-50
2021/12/12 11:12:02;;;;;;;0.75;0.75;;;18.50;52.80;;;;;;5044925;28;20172;-51
2021/12/12 11:14:32;;;;;;;2.35;0.40;;;18.50;52.70;;;;;;5045951;28;20070;-50
2021/12/12 11:17:06;;;;;;;0.80;0.32;;;18.50;52.70;;;;;;5049308;28;20053;-54
2021/12/12 11:19:39;;;;;;;0.80;0.20;;;18.50;52.70;;;;;;5048467;28;20041;-51
2021/12/12 11:22:13;;;;;;;0.43;0.20;;;18.50;52.70;;;;;;5048534;28;20051;-50
2021/12/12 11:24:43;;;;;;;1.05;0.30;;;18.50;52.60;;;;;;5043823;28;20554;-52
2021/12/12 11:27:16;;;;;;;1.20;0.30;;;18.50;52.60;;;;;;5041737;28;20049;-53
2021/12/12 11:29:48;;;;;;;2.05;0.20;;;18.60;52.70;;;;;;5047768;28;20037;-51
2021/12/12 11:32:20;;;;;;;1.10;0.28;;;18.60;52.60;;;;;;5049613;28;20915;-48
2021/12/12 11:34:51;;;;;;;0.65;0.20;;;18.60;52.60;;;;;;5047796;28;20139;-51
2021/12/12 11:37:29;;;;;;;0.40;0.15;;;18.70;52.60;;;;;;5048059;28;20062;-50
2021/12/12 11:40:02;;;;;;;1.58;0.32;;;18.70;52.50;;;;;;5048079;28;20064;-46
2021/12/12 11:42:36;;;;;;;0.98;0.10;;;18.70;52.50;;;;;;5047698;28;20033;-47
2021/12/12 11:45:09;;;;;;;0.20;0.15;;;18.70;52.50;;;;;;5047975;28;20462;-48
2021/12/12 11:47:53;;;;;;;0.77;0.15;;;18.70;52.40;;;;;;5046185;28;20045;-47
2021/12/12 11:50:30;;;;;;;0.38;0.38;;;18.80;52.40;;;;;;5045355;28;20044;-51
2021/12/12 11:53:02;;;;;;;0.50;0.20;;;18.80;52.40;;;;;;5048502;28;20060;-49
2021/12/12 11:55:36;;;;;;;0.57;0.10;;;18.80;52.40;;;;;;5048335;28;20049;-49
2021/12/12 11:58:15;;;;;;;0.25;0.15;;;18.90;52.30;;;;;;5045925;28;20040;-53
2021/12/12 12:00:49;;;;;;;0.25;0.20;;;19.00;52.20;;;;;;5039809;28;20059;-53
2021/12/12 12:03:30;;;;;;;0.40;0.10;;;19.00;52.10;;;;;;5041872;28;20036;-52
2021/12/12 12:06:13;;;;;;;0.35;0.10;;;19.10;52.00;;;;;;5043884;28;20144;-49
2021/12/12 12:08:59;;;;;;;0.20;0.10;;;19.10;51.90;;;;;;5047615;28;20521;-51
2021/12/12 12:11:36;;;;;;;1.03;0.20;;;19.10;51.80;;;;;;5046861;28;20494;-54
2021/12/12 12:14:08;;;;;;;1.15;0.17;;;19.20;51.80;;;;;;5048600;28;20051;-52
2021/12/12 12:16:47;;;;;;;0.30;0.30;;;19.20;51.80;;;;;;5047425;28;20052;-46
2021/12/12 12:19:33;;;;;;;0.40;0.40;;;19.20;51.80;;;;;;5047162;28;20131;-52
2021/12/12 12:22:19;;;;;;;0.38;0.13;;;19.30;51.60;;;;;;5040937;28;20037;-51
2021/12/12 12:24:58;;;;;;;0.25;0.10;;;19.30;51.50;;;;;;5043449;28;20044;-53
2021/12/12 12:27:33;;;;;;;0.40;0.10;;;19.30;51.50;;;;;;5046852;28;20132;-51
2021/12/12 12:30:33;;;;;;;0.20;0.10;;;19.30;51.50;;;;;;5045341;28;20063;-47
2021/12/12 12:33:40;;;;;;;0.20;0.10;;;19.30;51.40;;;;;;5043590;28;20033;-53
2021/12/12 12:36:44;;;;;;;0.10;0.10;;;19.40;51.40;;;;;;5042380;28;20037;-52
2021/12/12 12:39:45;;;;;;;0.10;0.10;;;19.30;51.40;;;;;;5047113;28;20124;-50
2021/12/12 12:45:51;;;;;;;0.10;0.10;;;19.30;51.40;;;;;;5078218;27;21175;-51
2021/12/12 12:49:10;;;;;;;0.52;0.10;;;19.30;51.40;;;;;;5063727;28;20032;-49
2021/12/12 12:51:59;;;;;;;0.10;0.10;;;19.30;51.40;;;;;;5056019;28;20040;-52
2021/12/12 12:54:31;;;;;;;0.10;0.10;;;19.30;51.50;;;;;;5072066;28;20048;-51
2021/12/12 12:57:09;;;;;;;0.10;0.10;;;19.30;51.50;;;;;;5057521;28;20033;-48
2021/12/12 12:59:55;;;;;;;0.32;0.10;;;19.30;51.50;;;;;;5063455;28;20048;-51
2021/12/12 13:02:29;;;;;;;0.63;0.10;;;19.30;51.50;;;;;;5074113;28;20040;-50
2021/12/12 13:05:30;;;;;;;1.95;1.00;;;19.30;51.60;;;;;;5065457;28;20235;-50
2021/12/12 13:09:04;;;;;;;0.10;0.10;;;19.30;51.50;;;;;;5062860;28;20045;-52
2021/12/12 13:11:41;;;;;;;0.57;0.10;;;19.40;51.50;;;;;;5074612;28;20044;-50
2021/12/12 13:14:34;;;;;;;0.10;0.10;;;19.30;51.50;;;;;;5061449;28;20072;-51
2021/12/12 13:17:13;;;;;;;0.15;0.10;;;19.30;51.40;;;;;;5059325;28;20030;-49
2021/12/12 13:20:02;;;;;;;0.70;0.40;;;19.30;51.50;;;;;;5069363;28;20073;-49
2021/12/12 13:22:37;;;;;;;0.35;0.35;;;19.30;51.50;;;;;;5064533;28;20051;-50
2021/12/12 13:25:12;;;;;;;0.13;0.10;;;19.30;51.50;;;;;;5064756;28;20049;-51
2021/12/12 13:28:00;;;;;;;1.20;0.10;;;19.30;51.50;;;;;;5055319;28;20098;-52
2021/12/12 13:30:41;;;;;;;0.50;0.10;;;19.30;51.50;;;;;;5072501;28;20036;-47
2021/12/12 13:33:18;;;;;;;0.10;0.10;;;19.30;51.60;;;;;;5060260;28;20144;-47
2021/12/12 13:36:01;;;;;;;0.10;0.10;;;19.30;51.60;;;;;;5058120;28;20449;-48
2021/12/12 13:38:40;;;;;;;0.25;0.25;;;19.30;51.50;;;;;;5063947;28;20040;-50